Time;durP1;ratioP1;P1;durP2;ratioP2;P2;SDS_P1;SDS_P2;PMS_P1;PMS_P2;Temp;Humidity;BMP_temperature;BMP_pressure;BME280_temperature;BME280_humidity;BME280_pressure;Samples;Min_cycle;Max_cycle;Signal;HPM_P1;HPM_P2
2022/05/18 00:01:18;;;;;;;4.18;1.60;;;;;;;14.90;67.92;100033.00;4958485;29;20087;-64
2022/05/18 00:03:48;;;;;;;2.67;1.50;;;;;;;14.87;67.63;100035.59;4958657;29;20134;-63
2022/05/18 00:06:17;;;;;;;2.00;0.95;;;;;;;14.83;68.15;100026.22;4958429;29;20126;-64
2022/05/18 00:08:51;;;;;;;3.83;1.85;;;;;;;14.77;67.81;100032.28;4958352;29;20053;-65
2022/05/18 00:11:30;;;;;;;1.42;1.33;;;;;;;14.75;68.22;100029.75;4958100;29;20051;-64
2022/05/18 00:14:24;;;;;;;2.30;1.98;;;;;;;14.73;67.91;100026.31;4958266;29;20054;-64
2022/05/18 00:16:53;;;;;;;1.45;1.15;;;;;;;14.69;68.32;100039.22;4958196;29;20049;-65
2022/05/18 00:19:22;;;;;;;0.93;0.90;;;;;;;14.64;68.07;100036.72;4958486;29;20047;-64
2022/05/18 00:21:51;;;;;;;0.60;0.60;;;;;;;14.59;68.57;100033.34;4958404;29;20059;-64
2022/05/18 00:24:21;;;;;;;2.13;1.73;;;;;;;14.58;68.06;100044.50;4958090;29;20856;-64
2022/05/18 00:26:50;;;;;;;1.73;1.50;;;;;;;14.54;68.35;100050.53;4958164;29;20094;-64
2022/05/18 00:29:20;;;;;;;1.27;1.10;;;;;;;14.47;68.83;100054.03;4957863;29;20052;-65
2022/05/18 00:31:49;;;;;;;1.38;1.05;;;;;;;14.46;69.03;100054.91;4957965;29;20102;-65
2022/05/18 00:34:21;;;;;;;0.65;0.65;;;;;;;14.43;68.84;100062.63;4958217;29;20066;-64
2022/05/18 00:36:50;;;;;;;1.17;1.10;;;;;;;14.43;68.68;100057.50;4958009;29;20106;-65
2022/05/18 00:39:23;;;;;;;1.13;0.77;;;;;;;14.45;69.19;100066.03;4958121;29;20406;-64
2022/05/18 00:41:52;;;;;;;1.27;1.10;;;;;;;14.46;68.83;100067.75;4957879;29;20086;-65
2022/05/18 00:44:40;;;;;;;3.07;1.33;;;;;;;14.38;68.79;100064.41;4957167;28;20070;-65
2022/05/18 00:47:09;;;;;;;1.00;0.85;;;;;;;14.36;69.22;100071.28;4957723;29;20058;-65
2022/05/18 00:50:03;;;;;;;1.15;1.08;;;;;;;14.33;69.15;100073.88;4957782;29;20423;-65
2022/05/18 00:52:47;;;;;;;0.50;0.50;;;;;;;14.39;69.11;100081.53;4957745;29;20063;-65
2022/05/18 00:55:25;;;;;;;2.17;1.33;;;;;;;14.41;69.35;100084.91;4957889;29;20110;-65
2022/05/18 00:58:05;;;;;;;1.23;1.13;;;;;;;14.35;68.95;100091.84;4957870;29;20055;-65
2022/05/18 01:00:39;;;;;;;1.20;1.10;;;;;;;14.26;69.63;100095.28;4957432;29;20059;-65
2022/05/18 01:03:34;;;;;;;1.50;1.10;;;;;;;14.17;69.90;100097.94;4957388;29;20055;-65
2022/05/18 01:06:12;;;;;;;0.85;0.82;;;;;;;14.07;70.03;100094.59;4957692;29;20059;-64
2022/05/18 01:09:04;;;;;;;0.88;0.88;;;;;;;13.98;70.43;100104.09;4957615;29;20409;-65
2022/05/18 01:11:44;;;;;;;1.30;1.20;;;;;;;13.92;70.98;100107.53;4956978;29;20134;-65
2022/05/18 01:14:20;;;;;;;1.40;1.30;;;;;;;13.85;70.55;100108.47;4957566;29;20051;-65
2022/05/18 01:16:53;;;;;;;2.55;1.58;;;;;;;13.61;71.35;100120.59;4957184;29;20083;-65
2022/05/18 01:19:35;;;;;;;1.13;1.02;;;;;;;13.41;71.72;100118.97;4957096;29;20142;-65
2022/05/18 01:22:18;;;;;;;1.65;1.27;;;;;;;13.30;72.19;100120.75;4957375;29;20453;-64
2022/05/18 01:24:56;;;;;;;1.35;0.90;;;;;;;13.13;73.05;100129.38;4957315;29;20501;-65
2022/05/18 01:27:30;;;;;;;1.42;1.33;;;;;;;13.09;73.41;100130.25;4955860;29;20047;-65
2022/05/18 01:29:59;;;;;;;1.33;1.00;;;;;;;12.80;73.98;100127.75;4956819;29;20433;-65
2022/05/18 01:32:40;;;;;;;3.27;1.03;;;;;;;12.75;74.66;100132.88;4957102;29;20071;-64
2022/05/18 01:35:12;;;;;;;1.27;1.17;;;;;;;12.68;74.79;100135.47;4957076;29;20277;-64
2022/05/18 01:37:45;;;;;;;1.50;1.40;;;;;;;12.70;75.04;100139.72;4957328;29;20152;-65
2022/05/18 01:40:21;;;;;;;2.55;1.98;;;;;;;12.70;75.18;100139.72;4957127;29;20147;-65
2022/05/18 01:42:59;;;;;;;3.53;2.15;;;;;;;12.71;75.22;100155.94;4956687;29;20497;-64
2022/05/18 01:45:29;;;;;;;2.17;1.97;;;;;;;12.82;75.49;100163.59;4956592;29;20130;-64
2022/05/18 01:48:09;;;;;;;1.58;1.48;;;;;;;12.71;75.47;100166.19;4956425;29;20043;-65
2022/05/18 01:50:38;;;;;;;2.80;1.02;;;;;;;12.64;74.87;100161.94;4956643;29;20066;-65
2022/05/18 01:53:07;;;;;;;;;;;;;;;12.63;75.51;100171.31;4957160;29;20077;-65
2022/05/18 01:55:37;;;;;;;1.60;1.33;;;;;;;12.73;75.27;100169.59;4956684;28;19929;-65
2022/05/18 01:58:10;;;;;;;3.88;1.23;;;;;;;12.78;75.01;100173.00;4956244;29;20066;-65
2022/05/18 02:00:44;;;;;;;2.72;1.95;;;;;;;12.85;74.89;100184.94;4956657;29;20043;-65
2022/05/18 02:03:17;;;;;;;1.30;1.20;;;;;;;12.86;74.60;100180.69;4956312;29;20058;-65
2022/05/18 02:05:53;;;;;;;0.77;0.77;;;;;;;12.91;74.01;100184.94;4956320;29;20066;-65
2022/05/18 02:08:25;;;;;;;0.70;0.70;;;;;;;12.92;73.39;100180.66;4956670;29;20461;-65
2022/05/18 02:10:54;;;;;;;1.30;1.23;;;;;;;12.82;73.42;100184.94;4955950;29;20115;-65
2022/05/18 02:13:25;;;;;;;1.20;1.10;;;;;;;12.57;73.55;100190.97;4956905;29;20500;-65
2022/05/18 02:15:57;;;;;;;1.05;0.85;;;;;;;12.47;73.78;100196.94;4956053;29;20139;-65
2022/05/18 02:18:26;;;;;;;0.57;0.57;;;;;;;11.93;73.87;100139.75;4955993;29;20051;-65
2022/05/18 02:20:55;;;;;;;0.80;0.80;;;;;;;12.16;74.47;100200.34;4956273;29;20051;-64
2022/05/18 02:23:26;;;;;;;1.20;1.10;;;;;;;12.12;74.82;100208.88;4955883;29;20130;-64
2022/05/18 02:25:56;;;;;;;0.73;0.73;;;;;;;11.96;74.91;100219.06;4954765;29;20059;-65
2022/05/18 02:28:26;;;;;;;0.57;0.57;;;;;;;12.05;75.18;100208.84;4955798;29;20051;-65
2022/05/18 02:30:58;;;;;;;0.60;0.60;;;;;;;12.07;74.98;100217.38;4956619;29;20075;-65
2022/05/18 02:33:36;;;;;;;0.88;0.82;;;;;;;12.03;74.77;100213.13;4956383;29;20485;-65
2022/05/18 02:36:15;;;;;;;0.73;0.73;;;;;;;11.85;74.89;100215.59;4955823;29;20106;-65
2022/05/18 02:38:44;;;;;;;0.80;0.80;;;;;;;11.91;75.32;100222.44;4955766;29;20114;-65
2022/05/18 02:41:13;;;;;;;0.85;0.85;;;;;;;11.91;75.05;100231.00;4956304;29;20081;-65
2022/05/18 02:44:09;;;;;;;0.77;0.77;;;;;;;11.87;75.11;100242.06;4955661;29;20127;-65
2022/05/18 02:46:38;;;;;;;0.80;0.80;;;;;;;11.50;74.92;100186.50;4956178;29;20398;-64
2022/05/18 02:49:10;;;;;;;1.83;1.70;;;;;;;11.68;75.75;100227.50;4955386;29;20044;-65
2022/05/18 02:51:40;;;;;;;1.23;1.10;;;;;;;11.76;75.59;100240.31;4955591;29;20285;-65
2022/05/18 02:56:53;;;;;;;1.25;1.13;;;;;;;11.54;76.24;100239.34;4955008;29;20059;-65
2022/05/18 02:59:23;;;;;;;1.08;1.02;;;;;;;11.57;76.30;100252.13;4955346;29;20081;-64
2022/05/18 03:01:56;;;;;;;2.13;1.10;;;;;;;11.50;76.29;100249.53;4938440;29;20055;-65
2022/05/18 03:04:25;;;;;;;1.00;0.93;;;;;;;11.47;76.49;100242.72;4955311;29;20062;-64
2022/05/18 03:06:55;;;;;;;2.95;1.70;;;;;;;11.40;76.41;100251.19;4955531;29;20502;-65
2022/05/18 03:09:23;;;;;;;1.50;1.27;;;;;;;11.41;76.54;100255.47;4955071;29;20050;-65
2022/05/18 03:11:53;;;;;;;0.52;0.52;;;;;;;11.45;76.86;100267.41;4955284;29;20294;-65
2022/05/18 03:14:23;;;;;;;3.85;2.22;;;;;;;11.35;76.96;100270.75;4955304;29;20106;-65
2022/05/18 03:16:53;;;;;;;0.50;0.50;;;;;;;11.29;77.26;100271.59;4955623;29;20472;-64
2022/05/18 03:19:23;;;;;;;0.60;0.60;;;;;;;11.01;77.28;100236.53;4955222;29;20058;-64
2022/05/18 03:24:35;;;;;;;0.98;0.82;;;;;;;11.26;77.24;100283.50;4913980;29;20596;-65
2022/05/18 03:27:07;;;;;;;2.08;1.60;;;;;;;11.23;77.23;100288.56;4955561;29;20051;-65
2022/05/18 03:29:38;;;;;;;0.70;0.70;;;;;;;11.24;77.60;100291.16;4955582;29;20466;-64
2022/05/18 03:32:08;;;;;;;1.10;1.00;;;;;;;11.18;77.56;100293.66;4955413;29;20490;-64
2022/05/18 03:34:40;;;;;;;2.75;1.20;;;;;;;11.34;78.29;100302.28;4955264;29;20133;-65
2022/05/18 03:37:10;;;;;;;0.88;0.88;;;;;;;11.49;77.92;100301.53;4955499;29;20051;-65
2022/05/18 03:39:42;;;;;;;1.55;1.10;;;;;;;11.41;78.00;100309.16;4955036;29;20505;-64
2022/05/18 03:42:11;;;;;;;0.73;0.73;;;;;;;11.41;78.09;100307.47;4954965;29;20174;-64
2022/05/18 03:44:41;;;;;;;6.17;2.43;;;;;;;11.35;77.98;100286.09;4955091;29;20054;-65
2022/05/18 03:47:10;;;;;;;1.65;1.55;;;;;;;11.57;78.15;100305.81;4955324;29;20412;-65
2022/05/18 03:49:39;;;;;;;2.57;1.67;;;;;;;11.58;78.06;100305.00;4954908;29;20047;-64
2022/05/18 03:52:08;;;;;;;1.20;1.13;;;;;;;11.43;78.16;100312.56;4937743;29;20648;-65
2022/05/18 03:54:38;;;;;;;1.23;1.13;;;;;;;11.35;78.02;100309.97;4954872;29;20055;-65
2022/05/18 03:57:10;;;;;;;1.48;1.38;;;;;;;11.38;77.60;100311.69;4954843;29;20051;-64
2022/05/18 03:59:40;;;;;;;1.13;1.00;;;;;;;11.43;77.87;100317.69;4954998;29;20082;-64
2022/05/18 04:02:10;;;;;;;1.25;1.15;;;;;;;11.46;77.95;100312.59;4955307;29;20055;-65
2022/05/18 04:04:39;;;;;;;0.80;0.80;;;;;;;11.50;77.85;100324.53;4955206;29;20054;-65
2022/05/18 04:07:08;;;;;;;0.90;0.90;;;;;;;11.53;78.00;100329.66;4954874;29;20051;-64
2022/05/18 04:09:37;;;;;;;1.40;1.30;;;;;;;11.64;78.10;100325.47;4955317;29;20047;-65
2022/05/18 04:12:08;;;;;;;1.13;1.00;;;;;;;11.81;77.80;100326.44;4954564;29;20091;-65
2022/05/18 04:14:37;;;;;;;1.27;1.17;;;;;;;11.96;77.62;100326.50;4955013;29;20050;-65
2022/05/18 04:17:06;;;;;;;1.70;1.60;;;;;;;12.08;77.24;100331.69;4955137;29;20053;-65
2022/05/18 04:19:36;;;;;;;1.10;1.05;;;;;;;12.26;76.74;100345.38;4955582;28;20051;-64
2022/05/18 04:22:06;;;;;;;0.98;0.98;;;;;;;12.33;75.86;100331.75;4958454;29;20074;-65
2022/05/18 04:24:44;;;;;;;0.40;0.40;;;;;;;12.52;75.57;100357.41;4958120;29;20043;-65
2022/05/18 04:27:13;;;;;;;0.65;0.65;;;;;;;12.71;74.63;100355.72;4958406;29;20051;-64
2022/05/18 04:29:42;;;;;;;0.70;0.70;;;;;;;12.88;73.03;100358.31;4957955;29;20059;-65
2022/05/18 04:32:11;;;;;;;0.50;0.50;;;;;;;13.07;71.72;100366.03;4957815;29;20572;-65
2022/05/18 04:34:48;;;;;;;0.70;0.70;;;;;;;13.26;70.62;100378.00;4958167;29;20075;-65
2022/05/18 04:37:17;;;;;;;0.90;0.77;;;;;;;13.37;70.05;100372.84;4957678;29;20568;-65
2022/05/18 04:39:47;;;;;;;;;;;;;;;13.57;69.63;100383.09;4958265;29;20057;-65
2022/05/18 04:42:16;;;;;;;1.07;1.07;;;;;;;13.70;69.00;100377.09;4957895;29;19961;-65
2022/05/18 04:44:45;;;;;;;0.80;0.80;;;;;;;13.84;68.45;100377.91;4957673;29;20083;-65
2022/05/18 04:47:14;;;;;;;0.77;0.77;;;;;;;13.98;68.08;100391.53;4957959;29;20573;-65
2022/05/18 04:49:57;;;;;;;1.77;1.58;;;;;;;14.11;67.79;100388.06;4958103;29;20079;-65
2022/05/18 04:52:29;;;;;;;1.67;1.27;;;;;;;14.16;68.08;100394.03;4957806;29;20102;-65
2022/05/18 04:54:58;;;;;;;0.98;0.88;;;;;;;14.27;68.06;100397.44;4957514;29;20134;-65
2022/05/18 04:57:27;;;;;;;0.75;0.75;;;;;;;14.41;67.74;100394.81;4940488;29;20046;-65
2022/05/18 05:00:22;;;;;;;0.80;0.80;;;;;;;14.55;66.87;100399.03;4957406;29;20126;-65
2022/05/18 05:02:57;;;;;;;1.40;1.05;;;;;;;14.68;66.42;100398.09;4957405;29;20080;-65
2022/05/18 05:05:28;;;;;;;0.57;0.57;;;;;;;14.75;65.21;100389.50;4957669;29;20405;-64
2022/05/18 05:07:58;;;;;;;0.65;0.65;;;;;;;14.86;63.38;100391.13;4957658;29;20387;-64
2022/05/18 05:10:26;;;;;;;0.60;0.60;;;;;;;15.06;61.77;100420.13;4956950;29;20051;-64
2022/05/18 05:12:55;;;;;;;0.40;0.40;;;;;;;15.14;60.58;100418.38;4957634;29;20114;-64
2022/05/18 05:15:24;;;;;;;0.57;0.57;;;;;;;15.22;60.16;100421.72;4957433;29;20405;-65
2022/05/18 05:18:03;;;;;;;0.70;0.70;;;;;;;15.32;58.99;100424.22;4957131;29;20090;-65
2022/05/18 05:20:35;;;;;;;0.70;0.70;;;;;;;15.47;58.44;100431.00;4957195;29;20059;-63
2022/05/18 05:23:05;;;;;;;1.30;0.98;;;;;;;15.64;58.65;100431.72;4957123;29;20055;-65
2022/05/18 05:25:37;;;;;;;0.50;0.50;;;;;;;15.80;58.28;100438.41;4957015;29;20110;-65
2022/05/18 05:28:09;;;;;;;0.47;0.47;;;;;;;15.94;57.95;100436.53;4961177;28;20147;-65
2022/05/18 05:30:40;;;;;;;0.50;0.50;;;;;;;16.08;57.40;100429.53;4956529;28;20051;-65
2022/05/18 05:33:09;;;;;;;0.60;0.60;;;;;;;16.24;56.70;100434.50;4957209;29;20117;-65
2022/05/18 05:35:40;;;;;;;0.63;0.63;;;;;;;16.25;55.48;100420.75;4956552;29;20055;-65
2022/05/18 05:38:11;;;;;;;0.73;0.73;;;;;;;16.47;55.15;100442.81;4956715;29;20134;-64
2022/05/18 05:40:43;;;;;;;0.57;0.57;;;;;;;16.46;53.71;100448.84;4956663;29;20055;-65
2022/05/18 05:43:13;;;;;;;0.93;0.80;;;;;;;16.51;53.02;100449.63;4956257;29;20147;-65
2022/05/18 05:45:42;;;;;;;0.57;0.57;;;;;;;16.64;52.60;100441.75;4956539;29;20449;-65
2022/05/18 05:48:11;;;;;;;1.25;1.17;;;;;;;16.72;51.86;100445.06;4956509;29;20509;-65
2022/05/18 05:50:42;;;;;;;0.60;0.60;;;;;;;16.79;51.14;100448.44;4956451;29;20063;-65
2022/05/18 05:53:11;;;;;;;1.00;0.95;;;;;;;16.86;50.93;100462.09;4955923;29;20092;-65
2022/05/18 05:55:40;;;;;;;0.57;0.57;;;;;;;16.92;50.92;100457.69;4955914;29;20047;-66
2022/05/18 05:58:17;;;;;;;0.63;0.63;;;;;;;17.05;51.00;100464.41;4956235;29;20054;-65
2022/05/18 06:00:46;;;;;;;0.80;0.80;;;;;;;17.18;50.58;100463.31;4956185;29;20360;-65
2022/05/18 06:03:16;;;;;;;0.52;0.52;;;;;;;17.26;50.06;100470.94;4956594;29;20055;-66
2022/05/18 06:05:49;;;;;;;0.98;0.98;;;;;;;17.39;50.59;100468.19;4956421;29;20137;-65
2022/05/18 06:08:18;;;;;;;0.50;0.50;;;;;;;17.48;49.84;100474.06;4956102;29;20442;-65
2022/05/18 06:10:47;;;;;;;0.60;0.60;;;;;;;17.51;48.82;100479.19;4955975;29;20055;-65
2022/05/18 06:13:19;;;;;;;0.50;0.50;;;;;;;17.62;49.72;100473.00;4956049;29;20356;-64
2022/05/18 06:15:48;;;;;;;5.38;1.30;;;;;;;17.61;48.25;100476.44;4955942;29;20110;-64
2022/05/18 06:18:18;;;;;;;0.93;0.82;;;;;;;17.70;48.61;100485.78;4956375;29;20052;-64
2022/05/18 06:20:49;;;;;;;0.60;0.60;;;;;;;17.76;47.97;100490.81;4955640;29;20074;-64
2022/05/18 06:23:19;;;;;;;1.20;1.02;;;;;;;17.65;47.49;100462.63;4938880;29;20055;-64
2022/05/18 06:25:47;;;;;;;;;;;;;;;17.90;47.29;100497.47;4956494;29;20142;-65
2022/05/18 06:28:16;;;;;;;1.30;0.60;;;;;;;17.90;47.04;100483.72;4955617;29;19922;-65
2022/05/18 06:30:46;;;;;;;0.68;0.68;;;;;;;18.07;46.95;100508.34;4955714;29;20105;-64
2022/05/18 06:33:15;;;;;;;0.60;0.60;;;;;;;17.97;46.08;100500.81;4955664;29;20062;-63
2022/05/18 06:35:44;;;;;;;1.10;0.97;;;;;;;17.95;45.87;100498.22;4955391;29;20090;-63
2022/05/18 06:38:16;;;;;;;0.68;0.68;;;;;;;17.91;45.48;100521.56;4955546;29;20787;-64
2022/05/18 06:43:24;;;;;;;5.57;1.17;;;;;;;17.89;44.18;100518.16;4955091;28;20130;-65
2022/05/18 06:45:53;;;;;;;0.57;0.57;;;;;;;17.96;43.83;100524.91;4955292;29;20079;-64
2022/05/18 06:48:22;;;;;;;0.50;0.50;;;;;;;18.02;43.19;100529.97;4955350;29;20506;-64
2022/05/18 06:51:11;;;;;;;0.50;0.50;;;;;;;18.06;43.18;100526.47;4955482;29;20065;-65
2022/05/18 06:53:42;;;;;;;0.93;0.93;;;;;;;18.03;42.36;100531.69;4937963;29;20061;-64
2022/05/18 06:56:11;;;;;;;0.57;0.57;;;;;;;18.14;42.49;100529.75;4955155;29;20043;-63
2022/05/18 06:58:40;;;;;;;1.02;0.95;;;;;;;18.29;42.02;100534.66;4938681;29;20055;-64
2022/05/18 07:01:13;;;;;;;0.82;0.82;;;;;;;18.46;41.46;100542.13;4955350;29;20090;-64
2022/05/18 07:03:43;;;;;;;0.50;0.50;;;;;;;18.49;41.26;100542.06;4955351;29;20086;-64
2022/05/18 07:06:13;;;;;;;0.70;0.60;;;;;;;18.50;40.79;100544.63;4938298;29;20102;-64
2022/05/18 07:08:44;;;;;;;0.50;0.50;;;;;;;18.49;40.44;100553.28;4955600;29;20442;-64
2022/05/18 07:11:13;;;;;;;0.70;0.70;;;;;;;18.36;39.23;100531.06;4955211;29;20102;-64
2022/05/18 07:13:42;;;;;;;0.80;0.80;;;;;;;18.37;37.58;100571.56;4954902;29;20043;-63
2022/05/18 07:16:11;;;;;;;0.50;0.50;;;;;;;18.38;37.62;100569.84;4955302;29;20103;-63
2022/05/18 07:18:41;;;;;;;0.50;0.50;;;;;;;18.43;38.55;100574.03;4955191;29;20398;-63
2022/05/18 07:21:10;;;;;;;;;;;;;;;18.51;38.88;100577.38;4955696;29;20051;-64
2022/05/18 07:23:39;;;;;;;0.75;0.57;;;;;;;18.46;38.02;100576.59;4955137;29;19973;-64
2022/05/18 07:26:10;;;;;;;0.60;0.60;;;;;;;18.48;37.67;100567.06;4955171;29;20059;-64
2022/05/18 07:28:39;;;;;;;0.50;0.50;;;;;;;18.57;37.88;100561.72;4955200;29;20051;-64
2022/05/18 07:31:10;;;;;;;0.60;0.60;;;;;;;18.54;37.75;100579.03;4955467;29;20043;-64
2022/05/18 07:33:59;;;;;;;1.08;1.00;;;;;;;18.55;38.26;100584.19;4955083;29;20054;-63
2022/05/18 07:36:29;;;;;;;0.60;0.60;;;;;;;18.64;38.49;100589.16;4956229;29;20388;-63
2022/05/18 07:38:57;;;;;;;;;;;;;;;18.69;37.87;100586.53;4955593;29;20472;-64
2022/05/18 07:41:28;;;;;;;0.75;0.75;;;;;;;18.71;36.65;100577.81;4955127;29;19926;-63
2022/05/18 07:43:57;;;;;;;0.50;0.50;;;;;;;18.79;36.97;100582.03;4955126;29;20051;-63
2022/05/18 07:46:26;;;;;;;0.60;0.60;;;;;;;18.82;36.64;100587.13;4954894;29;20059;-65
2022/05/18 07:48:56;;;;;;;0.65;0.65;;;;;;;18.84;36.06;100591.38;4954823;29;20062;-63
2022/05/18 07:51:25;;;;;;;0.50;0.50;;;;;;;18.88;36.31;100597.34;4954846;29;20386;-64
2022/05/18 07:53:54;;;;;;;0.52;0.52;;;;;;;19.03;36.74;100597.03;4955747;28;20058;-64
2022/05/18 07:56:24;;;;;;;0.85;0.85;;;;;;;19.15;35.72;100596.78;4958838;29;20055;-63
2022/05/18 07:58:54;;;;;;;8.38;0.98;;;;;;;19.29;35.15;100599.94;4941472;29;20415;-63
2022/05/18 08:01:24;;;;;;;0.40;0.40;;;;;;;19.36;34.48;100611.91;4958711;29;20478;-63
2022/05/18 08:03:53;;;;;;;0.73;0.70;;;;;;;19.29;33.93;100605.13;4958393;29;20055;-63
2022/05/18 08:06:22;;;;;;;;;;;;;;;19.14;33.86;100610.63;4958847;29;20505;-63
2022/05/18 08:08:51;;;;;;;0.60;0.60;;;;;;;19.11;33.60;100611.53;4958320;29;19929;-63
2022/05/18 08:16:40;;;;;;;0.57;0.57;;;;;;;19.07;33.00;100612.50;4958191;29;20052;-63
2022/05/18 08:19:12;;;;;;;0.77;0.77;;;;;;;18.87;32.67;100570.63;4958151;28;20051;-64
2022/05/18 08:21:41;;;;;;;0.80;0.80;;;;;;;19.16;32.27;100611.44;4967666;28;20039;-63
2022/05/18 08:24:11;;;;;;;0.40;0.40;;;;;;;19.26;32.66;100615.53;4965984;28;20050;-64
2022/05/18 08:26:41;;;;;;;;;;;;;;;19.16;31.73;100625.22;4967355;28;20142;-64
2022/05/18 08:29:12;;;;;;;0.45;0.45;;;;;;;18.97;29.41;100633.38;4967825;28;19934;-65
2022/05/18 08:31:49;;;;;;;12.77;0.98;;;;;;;18.87;29.20;100630.13;4964955;28;20534;-63
2022/05/18 08:34:18;;;;;;;0.70;0.70;;;;;;;18.99;30.73;100621.28;4966857;28;20046;-63
2022/05/18 08:36:47;;;;;;;0.50;0.50;;;;;;;19.31;31.94;100624.06;4967320;28;20081;-64
2022/05/18 08:39:17;;;;;;;0.47;0.47;;;;;;;19.41;30.45;100630.78;4966272;28;20043;-63
2022/05/18 08:41:49;;;;;;;0.40;0.40;;;;;;;19.14;29.50;100610.63;4965671;28;20057;-62
2022/05/18 08:44:27;;;;;;;0.63;0.63;;;;;;;19.13;29.66;100624.44;4964330;28;20082;-63
2022/05/18 08:47:11;;;;;;;0.50;0.50;;;;;;;19.13;29.59;100624.44;4965690;28;20079;-63
2022/05/18 08:49:46;;;;;;;0.30;0.30;;;;;;;19.28;29.37;100639.66;4966179;28;20047;-64
2022/05/18 08:52:45;;;;;;;0.50;0.50;;;;;;;19.39;28.98;100638.56;4946739;28;20123;-64
2022/05/18 08:55:35;;;;;;;0.50;0.50;;;;;;;19.43;28.79;100633.34;4958199;28;20047;-63
2022/05/18 08:58:09;;;;;;;0.73;0.73;;;;;;;19.66;30.17;100637.13;4965624;28;20529;-63
2022/05/18 09:00:55;;;;;;;0.50;0.50;;;;;;;19.81;30.19;100635.94;4967214;28;20102;-64
2022/05/18 09:03:29;;;;;;;0.50;0.50;;;;;;;19.87;29.86;100639.22;4976642;28;20133;-63
2022/05/18 09:06:03;;;;;;;0.60;0.60;;;;;;;19.85;30.34;100641.00;4976118;28;20055;-63
2022/05/18 09:08:35;;;;;;;0.50;0.50;;;;;;;19.76;31.23;100643.81;4976581;28;20079;-63
2022/05/18 09:11:08;;;;;;;0.93;0.93;;;;;;;19.85;32.28;100651.38;4976112;28;20065;-63
2022/05/18 09:13:38;;;;;;;0.50;0.50;;;;;;;19.91;32.18;100642.59;4976401;28;20548;-63
2022/05/18 09:16:21;;;;;;;0.60;0.60;;;;;;;20.08;32.66;100647.38;4976159;28;20102;-64
2022/05/18 09:19:11;;;;;;;0.85;0.85;;;;;;;20.05;31.14;100640.53;4976474;28;20081;-64
2022/05/18 09:21:49;;;;;;;0.50;0.50;;;;;;;20.21;31.99;100647.03;4975972;28;20047;-64
2022/05/18 09:24:30;;;;;;;0.57;0.57;;;;;;;20.31;31.31;100645.09;4976669;28;20051;-64
2022/05/18 09:27:23;;;;;;;0.50;0.50;;;;;;;20.53;31.50;100648.88;4976410;28;20564;-65
2022/05/18 09:30:02;;;;;;;0.60;0.60;;;;;;;20.53;29.88;100648.88;4976505;28;20057;-63
2022/05/18 09:32:52;;;;;;;;;;;;;;;20.55;29.55;100647.09;4976940;28;20073;-64
2022/05/18 09:35:35;;;;;;;0.60;0.60;;;;;;;20.51;28.78;100655.84;4971941;28;20005;-65
2022/05/18 09:38:08;;;;;;;0.77;0.77;;;;;;;20.63;29.38;100665.91;4976097;28;20408;-65
2022/05/18 09:40:43;;;;;;;0.50;0.50;;;;;;;20.94;30.57;100660.75;4976076;28;20111;-64
2022/05/18 09:43:17;;;;;;;0.60;0.60;;;;;;;20.97;30.12;100651.09;4976047;28;20054;-63
2022/05/18 09:45:48;;;;;;;0.70;0.70;;;;;;;20.80;29.68;100648.16;4975955;28;20058;-64
2022/05/18 09:48:22;;;;;;;0.50;0.50;;;;;;;20.74;29.20;100643.09;4975485;28;20413;-64
2022/05/18 09:50:54;;;;;;;0.55;0.55;;;;;;;20.85;29.50;100654.03;4975501;28;20055;-64
2022/05/18 09:53:23;;;;;;;0.85;0.85;;;;;;;20.95;29.52;100658.09;4975748;28;20047;-64
2022/05/18 09:55:52;;;;;;;3.13;0.75;;;;;;;21.14;29.79;100656.72;4975937;28;20051;-64
2022/05/18 09:58:27;;;;;;;0.50;0.50;;;;;;;21.35;31.62;100650.06;4975746;28;20061;-65
2022/05/18 10:09:24;;;;;;;0.57;0.57;;;;;;;21.31;29.16;100657.09;4975494;28;20556;-65
2022/05/18 10:11:53;;;;;;;0.88;0.50;;;;;;;21.05;29.16;100645.75;4975500;28;20094;-64
2022/05/18 10:14:32;;;;;;;0.68;0.68;;;;;;;21.03;31.90;100630.19;4975089;28;20051;-64
2022/05/18 10:17:05;;;;;;;0.75;0.68;;;;;;;21.28;33.51;100651.97;4975255;28;20042;-65
2022/05/18 10:19:37;;;;;;;0.52;0.52;;;;;;;21.52;32.90;100644.38;4958303;28;20501;-64
2022/05/18 10:22:10;;;;;;;0.45;0.45;;;;;;;21.55;32.75;100613.94;4975275;28;20055;-63
2022/05/18 10:24:44;;;;;;;0.60;0.60;;;;;;;21.91;31.53;100637.97;4975561;28;20047;-64
2022/05/18 10:27:20;;;;;;;0.60;0.60;;;;;;;21.62;29.02;100646.63;4975075;28;20054;-63
2022/05/18 10:30:02;;;;;;;0.50;0.50;;;;;;;21.54;28.57;100647.78;4975200;28;20050;-63
2022/05/18 10:32:33;;;;;;;0.63;0.60;;;;;;;21.52;28.57;100640.03;4974936;28;20073;-63
2022/05/18 10:35:03;;;;;;;0.40;0.40;;;;;;;21.69;29.46;100644.72;4975094;28;20137;-63
2022/05/18 10:37:38;;;;;;;0.82;0.55;;;;;;;21.84;29.34;100641.63;4974381;28;20043;-63
2022/05/18 10:40:12;;;;;;;0.50;0.50;;;;;;;21.76;28.42;100641.03;4974605;28;20393;-64
2022/05/18 10:42:47;;;;;;;0.50;0.50;;;;;;;21.79;28.92;100635.72;4975231;28;20517;-64
2022/05/18 10:45:35;;;;;;;0.73;0.68;;;;;;;22.00;29.46;100633.31;4974853;28;20063;-63
2022/05/18 10:48:10;;;;;;;0.52;0.52;;;;;;;21.92;28.32;100639.69;4974995;28;20059;-63
2022/05/18 10:50:41;;;;;;;0.50;0.50;;;;;;;21.86;27.71;100638.13;4974966;28;20050;-63
2022/05/18 10:53:31;;;;;;;0.40;0.40;;;;;;;22.06;27.65;100637.50;4975140;28;20560;-63
2022/05/18 10:56:05;;;;;;;1.02;1.02;;;;;;;22.37;28.40;100638.19;4974754;28;20058;-63
2022/05/18 10:58:37;;;;;;;0.60;0.60;;;;;;;22.58;27.86;100640.03;4974855;28;20089;-64
2022/05/18 11:01:11;;;;;;;0.50;0.50;;;;;;;22.71;28.11;100637.06;4974784;28;20567;-63
2022/05/18 11:03:53;;;;;;;0.50;0.50;;;;;;;22.68;27.90;100633.66;4974979;28;20061;-64
2022/05/18 11:06:27;;;;;;;0.68;0.68;;;;;;;22.86;27.92;100633.91;4974762;28;20137;-64
2022/05/18 11:09:01;;;;;;;0.50;0.50;;;;;;;23.02;27.54;100622.03;4975064;28;20058;-64
2022/05/18 11:11:40;;;;;;;0.82;0.82;;;;;;;23.14;26.05;100632.00;4974508;28;20528;-62
2022/05/18 11:14:16;;;;;;;;;;;;;;;22.94;24.36;100635.31;4975048;28;20493;-63
2022/05/18 11:16:56;;;;;;;0.50;0.50;;;;;;;22.63;23.12;100630.38;4974621;28;19926;-64
2022/05/18 11:19:41;;;;;;;0.52;0.52;;;;;;;22.50;23.33;100608.25;4974691;28;20497;-63
2022/05/18 11:22:28;;;;;;;0.45;0.45;;;;;;;22.87;24.00;100633.00;4974783;28;20050;-64
2022/05/18 11:25:14;;;;;;;0.63;0.63;;;;;;;23.11;24.42;100632.09;4975002;28;20117;-63
2022/05/18 11:28:24;;;;;;;1.15;1.05;;;;;;;23.05;23.40;100616.72;4974413;28;20113;-64
2022/05/18 11:31:12;;;;;;;0.50;0.50;;;;;;;23.09;23.48;100619.16;4978798;28;20138;-64
2022/05/18 11:33:52;;;;;;;0.50;0.50;;;;;;;23.02;23.58;100619.44;4978344;28;20101;-64
2022/05/18 11:36:26;;;;;;;;;;;;;;;23.30;24.73;100620.94;4978810;28;20125;-64
2022/05/18 11:39:07;;;;;;;0.60;0.60;;;;;;;23.59;24.72;100619.88;4978571;28;20261;-64
2022/05/18 11:41:59;;;;;;;0.50;0.50;;;;;;;23.26;23.08;100631.53;4978640;28;20051;-63
2022/05/18 11:44:40;;;;;;;0.50;0.50;;;;;;;22.87;22.07;100613.03;4978530;28;20050;-64
2022/05/18 11:47:26;;;;;;;0.60;0.60;;;;;;;22.86;22.35;100620.91;4978156;28;20051;-64
2022/05/18 11:50:06;;;;;;;0.40;0.40;;;;;;;23.12;22.71;100618.19;4978462;28;20146;-64
2022/05/18 11:53:02;;;;;;;0.47;0.47;;;;;;;23.36;24.54;100622.50;4978335;28;20086;-64
2022/05/18 11:55:41;;;;;;;0.40;0.40;;;;;;;23.16;22.88;100614.56;4978072;28;20102;-64
2022/05/18 11:58:26;;;;;;;0.40;0.40;;;;;;;22.73;22.90;100586.63;4978064;28;20548;-63
2022/05/18 12:01:01;;;;;;;0.50;0.50;;;;;;;22.70;23.66;100630.16;4977946;28;20055;-63
2022/05/18 12:03:55;;;;;;;0.45;0.45;;;;;;;22.77;23.63;100621.22;4977815;28;20051;-64
2022/05/18 12:07:01;;;;;;;0.60;0.60;;;;;;;22.94;23.83;100619.69;4978199;28;20053;-64
2022/05/18 12:09:49;;;;;;;0.60;0.60;;;;;;;23.19;25.09;100619.66;4977610;28;20050;-64
2022/05/18 12:12:26;;;;;;;2.05;1.20;;;;;;;23.27;26.48;100617.63;4977681;28;20050;-65
2022/05/18 12:15:08;;;;;;;0.45;0.45;;;;;;;23.16;26.37;100624.97;4977875;28;20138;-64
2022/05/18 12:17:43;;;;;;;0.50;0.50;;;;;;;23.19;27.12;100619.66;4977549;28;20058;-64
2022/05/18 12:20:18;;;;;;;0.60;0.60;;;;;;;23.38;27.14;100625.91;4977625;28;20050;-64